Hovedside
METAR-TAF:

METAR-TAF

Lufthavner :

Damaskus, Syria

breddegrad: 33-25N, lengdegrad: 036-31E, høyde over havet: 608 m

Gjeldene værobservasjon

Denne rapporten ble laget for 34 minutter siden, klokken 21:00 UTC
Vind 35 kt fra Sørvest med vindkast opp mot 45 kt
Temperatur 8°C
Luftfuktighet 87%
Trykk 1000 hPa
Sikt: 7000 m
Brutte skyer i en høyde av 3000 ft
Overskyet i en høyde av 10000 ft
regn

METAR: OSDI 182100Z 22035G45KT 7000 RA BKN030 OVC100 08/06 Q1000

Tid: 23:34 (21:34 UTC)

Varsel

Varsel gyldig fra 18. klokken 18 UTC til 19. klokken 24 UTC
Vind 15 kt fra Sørvest
Sikt: 6000 m
Spredte skyer i en høyde av 3000 ft
Brutte skyer i en høyde av 10000 ft
Midlertidig
fra 18. klokken 22 UTC til 19. klokken 18 UTC
Vind 20 kt fra Vest med vindkast opp mot 35 kt
Spredte skyer i en høyde av 2500 ft, Bygeskyer.
Brutte skyer i en høyde av 3000 ft
Overskyet i en høyde av 9000 ft
regnbyger

TAF: OSDI 1818/1924 23015KT 6000 SCT030 BKN100 TEMPO 1822/1918 26020G35KT 3000TS SHRA SCT025CB BKN030 OVC090

Værobservasjoner og værvarsel for over 4000 flyplasser (METAR- og TAF-rapporter).

Tilgjengelige stasjoner er representert av de røde og gule prikkene på kartet.

Hold musepekeren over prikken for å se navnet på stasjonen.

Klikk så for å se værobservasjoner og -varsler.

For å forandre kartet kan du klikke på den grønne knappen med svart kryss for å zoome inn, på den grønne knappen med strek for å zoome ut, eller på de grønne pilene for å se tilstøtende kart.


METAR-TAF: